sensor_id;sensor_type;location;lat;lon;timestamp;temperature;humidity
72128;DHT22;60000;51.030;7.024;2024-02-14T00:01:47;8.67;76.50
72128;DHT22;60000;51.030;7.024;2024-02-14T00:04:12;8.66;76.52
72128;DHT22;60000;51.030;7.024;2024-02-14T00:06:39;8.62;76.47
72128;DHT22;60000;51.030;7.024;2024-02-14T00:09:04;8.62;76.51
72128;DHT22;60000;51.030;7.024;2024-02-14T00:11:31;8.64;76.62
72128;DHT22;60000;51.030;7.024;2024-02-14T00:13:57;8.62;76.74
72128;DHT22;60000;51.030;7.024;2024-02-14T00:16:24;8.59;76.85
72128;DHT22;60000;51.030;7.024;2024-02-14T00:18:49;8.60;76.96
72128;DHT22;60000;51.030;7.024;2024-02-14T00:21:16;8.62;76.97
72128;DHT22;60000;51.030;7.024;2024-02-14T00:23:41;8.62;76.79
72128;DHT22;60000;51.030;7.024;2024-02-14T00:26:06;8.64;76.69
72128;DHT22;60000;51.030;7.024;2024-02-14T00:28:32;8.67;76.65
72128;DHT22;60000;51.030;7.024;2024-02-14T00:30:58;8.64;76.56
72128;DHT22;60000;51.030;7.024;2024-02-14T00:33:23;8.63;76.61
72128;DHT22;60000;51.030;7.024;2024-02-14T00:35:48;8.62;76.57
72128;DHT22;60000;51.030;7.024;2024-02-14T00:38:14;8.66;76.58
72128;DHT22;60000;51.030;7.024;2024-02-14T00:40:39;8.67;76.90
72128;DHT22;60000;51.030;7.024;2024-02-14T00:43:04;8.70;76.93
72128;DHT22;60000;51.030;7.024;2024-02-14T00:45:30;8.69;77.12
72128;DHT22;60000;51.030;7.024;2024-02-14T00:47:55;8.73;77.39
72128;DHT22;60000;51.030;7.024;2024-02-14T00:50:20;8.73;77.41
72128;DHT22;60000;51.030;7.024;2024-02-14T00:52:46;8.71;77.71
72128;DHT22;60000;51.030;7.024;2024-02-14T00:55:11;8.70;77.99
72128;DHT22;60000;51.030;7.024;2024-02-14T00:57:37;8.76;78.07
72128;DHT22;60000;51.030;7.024;2024-02-14T01:00:02;8.71;78.27
72128;DHT22;60000;51.030;7.024;2024-02-14T01:02:28;8.69;78.48
72128;DHT22;60000;51.030;7.024;2024-02-14T01:04:55;8.67;78.82
72128;DHT22;60000;51.030;7.024;2024-02-14T01:09:50;8.69;79.06
72128;DHT22;60000;51.030;7.024;2024-02-14T01:12:15;8.67;79.06
72128;DHT22;60000;51.030;7.024;2024-02-14T01:14:42;8.67;79.06
72128;DHT22;60000;51.030;7.024;2024-02-14T01:17:07;8.70;79.17
72128;DHT22;60000;51.030;7.024;2024-02-14T01:19:33;8.71;79.08
72128;DHT22;60000;51.030;7.024;2024-02-14T01:21:58;8.70;79.15
72128;DHT22;60000;51.030;7.024;2024-02-14T01:24:24;8.76;79.02
72128;DHT22;60000;51.030;7.024;2024-02-14T01:26:52;8.74;78.97
72128;DHT22;60000;51.030;7.024;2024-02-14T01:29:19;8.80;78.69
72128;DHT22;60000;51.030;7.024;2024-02-14T01:31:44;8.84;78.48
72128;DHT22;60000;51.030;7.024;2024-02-14T01:34:09;8.87;78.45
72128;DHT22;60000;51.030;7.024;2024-02-14T01:36:35;8.87;78.44
72128;DHT22;60000;51.030;7.024;2024-02-14T01:39:00;8.90;78.42
72128;DHT22;60000;51.030;7.024;2024-02-14T01:41:25;8.90;78.44
72128;DHT22;60000;51.030;7.024;2024-02-14T01:43:51;8.90;78.46
72128;DHT22;60000;51.030;7.024;2024-02-14T01:46:17;8.91;78.44
72128;DHT22;60000;51.030;7.024;2024-02-14T01:48:43;8.96;78.38
72128;DHT22;60000;51.030;7.024;2024-02-14T01:51:11;8.97;78.23
72128;DHT22;60000;51.030;7.024;2024-02-14T01:53:37;8.99;78.27
72128;DHT22;60000;51.030;7.024;2024-02-14T01:56:06;8.99;78.30
72128;DHT22;60000;51.030;7.024;2024-02-14T01:58:33;9.01;78.30
72128;DHT22;60000;51.030;7.024;2024-02-14T02:00:59;9.03;78.28
72128;DHT22;60000;51.030;7.024;2024-02-14T02:03:25;9.04;78.29
72128;DHT22;60000;51.030;7.024;2024-02-14T02:05:52;9.05;78.18
72128;DHT22;60000;51.030;7.024;2024-02-14T02:08:18;9.08;78.30
72128;DHT22;60000;51.030;7.024;2024-02-14T02:10:43;9.07;78.32
72128;DHT22;60000;51.030;7.024;2024-02-14T02:13:08;9.08;78.30
72128;DHT22;60000;51.030;7.024;2024-02-14T02:15:37;9.10;78.41
72128;DHT22;60000;51.030;7.024;2024-02-14T02:18:05;9.08;78.39
72128;DHT22;60000;51.030;7.024;2024-02-14T02:20:31;9.08;78.44
72128;DHT22;60000;51.030;7.024;2024-02-14T02:22:59;9.10;78.53
72128;DHT22;60000;51.030;7.024;2024-02-14T02:25:24;9.11;78.53
72128;DHT22;60000;51.030;7.024;2024-02-14T02:27:52;9.11;78.63
72128;DHT22;60000;51.030;7.024;2024-02-14T02:30:17;9.12;78.65
72128;DHT22;60000;51.030;7.024;2024-02-14T02:32:42;9.14;78.65
72128;DHT22;60000;51.030;7.024;2024-02-14T02:35:08;9.14;78.73
72128;DHT22;60000;51.030;7.024;2024-02-14T02:37:35;9.18;78.73
72128;DHT22;60000;51.030;7.024;2024-02-14T02:40:00;9.17;78.78
72128;DHT22;60000;51.030;7.024;2024-02-14T02:42:25;9.17;78.86
72128;DHT22;60000;51.030;7.024;2024-02-14T02:44:51;9.15;78.88
72128;DHT22;60000;51.030;7.024;2024-02-14T02:47:16;9.17;79.02
72128;DHT22;60000;51.030;7.024;2024-02-14T02:49:45;9.20;79.02
72128;DHT22;60000;51.030;7.024;2024-02-14T02:52:11;9.20;79.12
72128;DHT22;60000;51.030;7.024;2024-02-14T02:54:37;9.24;79.07
72128;DHT22;60000;51.030;7.024;2024-02-14T02:57:06;9.22;79.10
72128;DHT22;60000;51.030;7.024;2024-02-14T02:59:34;9.21;79.23
72128;DHT22;60000;51.030;7.024;2024-02-14T03:02:00;9.22;79.28
72128;DHT22;60000;51.030;7.024;2024-02-14T03:04:26;9.24;79.23
72128;DHT22;60000;51.030;7.024;2024-02-14T03:06:51;9.24;79.28
72128;DHT22;60000;51.030;7.024;2024-02-14T03:09:16;9.25;79.30
72128;DHT22;60000;51.030;7.024;2024-02-14T03:11:46;9.25;79.34
72128;DHT22;60000;51.030;7.024;2024-02-14T03:14:12;9.24;79.40
72128;DHT22;60000;51.030;7.024;2024-02-14T03:16:38;9.25;79.43
72128;DHT22;60000;51.030;7.024;2024-02-14T03:19:06;9.24;79.53
72128;DHT22;60000;51.030;7.024;2024-02-14T03:21:31;9.27;79.60
72128;DHT22;60000;51.030;7.024;2024-02-14T03:24:01;9.24;79.58
72128;DHT22;60000;51.030;7.024;2024-02-14T03:26:28;9.22;79.68
72128;DHT22;60000;51.030;7.024;2024-02-14T03:28:53;9.22;79.72
72128;DHT22;60000;51.030;7.024;2024-02-14T03:31:19;9.22;79.75
72128;DHT22;60000;51.030;7.024;2024-02-14T03:33:45;9.22;79.81
72128;DHT22;60000;51.030;7.024;2024-02-14T03:36:11;9.27;79.96
72128;DHT22;60000;51.030;7.024;2024-02-14T03:38:36;9.22;79.94
72128;DHT22;60000;51.030;7.024;2024-02-14T03:41:04;9.25;80.04
72128;DHT22;60000;51.030;7.024;2024-02-14T03:43:29;9.25;80.10
72128;DHT22;60000;51.030;7.024;2024-02-14T03:45:54;9.25;80.11
72128;DHT22;60000;51.030;7.024;2024-02-14T03:48:21;9.27;80.15
72128;DHT22;60000;51.030;7.024;2024-02-14T03:50:47;9.24;80.29
72128;DHT22;60000;51.030;7.024;2024-02-14T03:53:13;9.21;80.36
72128;DHT22;60000;51.030;7.024;2024-02-14T03:55:40;9.24;80.41
72128;DHT22;60000;51.030;7.024;2024-02-14T03:58:05;9.25;80.49
72128;DHT22;60000;51.030;7.024;2024-02-14T04:00:31;9.25;80.42
72128;DHT22;60000;51.030;7.024;2024-02-14T04:02:57;9.25;80.56
72128;DHT22;60000;51.030;7.024;2024-02-14T04:05:25;9.28;80.59
72128;DHT22;60000;51.030;7.024;2024-02-14T04:07:54;9.22;80.64
72128;DHT22;60000;51.030;7.024;2024-02-14T04:10:21;9.22;80.75
72128;DHT22;60000;51.030;7.024;2024-02-14T04:12:47;9.25;80.88
72128;DHT22;60000;51.030;7.024;2024-02-14T04:15:12;9.28;80.92
72128;DHT22;60000;51.030;7.024;2024-02-14T04:17:39;9.27;80.98
72128;DHT22;60000;51.030;7.024;2024-02-14T04:20:05;9.28;81.15
72128;DHT22;60000;51.030;7.024;2024-02-14T04:22:30;9.30;81.27
72128;DHT22;60000;51.030;7.024;2024-02-14T04:24:56;9.31;81.20
72128;DHT22;60000;51.030;7.024;2024-02-14T04:27:21;9.32;81.23
72128;DHT22;60000;51.030;7.024;2024-02-14T04:29:47;9.38;81.26
72128;DHT22;60000;51.030;7.024;2024-02-14T04:32:13;9.41;81.20
72128;DHT22;60000;51.030;7.024;2024-02-14T04:34:39;9.38;81.23
72128;DHT22;60000;51.030;7.024;2024-02-14T04:37:05;9.38;81.28
72128;DHT22;60000;51.030;7.024;2024-02-14T04:39:35;9.39;81.30
72128;DHT22;60000;51.030;7.024;2024-02-14T04:42:01;9.41;81.25
72128;DHT22;60000;51.030;7.024;2024-02-14T04:44:31;9.39;81.21
72128;DHT22;60000;51.030;7.024;2024-02-14T04:46:57;9.41;81.25
72128;DHT22;60000;51.030;7.024;2024-02-14T04:49:25;9.42;81.18
72128;DHT22;60000;51.030;7.024;2024-02-14T04:51:51;9.41;81.11
72128;DHT22;60000;51.030;7.024;2024-02-14T04:54:17;9.38;81.13
72128;DHT22;60000;51.030;7.024;2024-02-14T04:56:43;9.36;81.14
72128;DHT22;60000;51.030;7.024;2024-02-14T04:59:08;9.35;81.14
72128;DHT22;60000;51.030;7.024;2024-02-14T05:01:34;9.35;81.14
72128;DHT22;60000;51.030;7.024;2024-02-14T05:04:00;9.35;81.21
72128;DHT22;60000;51.030;7.024;2024-02-14T05:06:25;9.35;81.25
72128;DHT22;60000;51.030;7.024;2024-02-14T05:08:51;9.34;81.29
72128;DHT22;60000;51.030;7.024;2024-02-14T05:11:17;9.34;81.35
72128;DHT22;60000;51.030;7.024;2024-02-14T05:13:42;9.34;81.51
72128;DHT22;60000;51.030;7.024;2024-02-14T05:16:09;9.34;81.56
72128;DHT22;60000;51.030;7.024;2024-02-14T05:18:36;9.34;81.48
72128;DHT22;60000;51.030;7.024;2024-02-14T05:21:05;9.34;81.52
72128;DHT22;60000;51.030;7.024;2024-02-14T05:23:31;9.34;81.60
72128;DHT22;60000;51.030;7.024;2024-02-14T05:25:56;9.35;81.59
72128;DHT22;60000;51.030;7.024;2024-02-14T05:28:21;9.36;81.66
72128;DHT22;60000;51.030;7.024;2024-02-14T05:30:47;9.35;81.72
72128;DHT22;60000;51.030;7.024;2024-02-14T05:33:12;9.36;81.71
72128;DHT22;60000;51.030;7.024;2024-02-14T05:35:37;9.36;81.84
72128;DHT22;60000;51.030;7.024;2024-02-14T05:38:03;9.38;81.86
72128;DHT22;60000;51.030;7.024;2024-02-14T05:40:30;9.41;82.19
72128;DHT22;60000;51.030;7.024;2024-02-14T05:42:55;9.39;82.44
72128;DHT22;60000;51.030;7.024;2024-02-14T05:45:21;9.38;83.00
72128;DHT22;60000;51.030;7.024;2024-02-14T05:47:46;9.38;83.17
72128;DHT22;60000;51.030;7.024;2024-02-14T05:50:12;9.34;83.56
72128;DHT22;60000;51.030;7.024;2024-02-14T05:52:38;9.32;83.92
72128;DHT22;60000;51.030;7.024;2024-02-14T05:55:04;9.27;84.24
72128;DHT22;60000;51.030;7.024;2024-02-14T05:57:30;9.24;84.48
72128;DHT22;60000;51.030;7.024;2024-02-14T05:59:55;9.20;84.75
72128;DHT22;60000;51.030;7.024;2024-02-14T06:02:20;9.17;85.02
72128;DHT22;60000;51.030;7.024;2024-02-14T06:04:46;9.12;85.14
72128;DHT22;60000;51.030;7.024;2024-02-14T06:07:12;9.14;85.59
72128;DHT22;60000;51.030;7.024;2024-02-14T06:09:37;9.11;85.55
72128;DHT22;60000;51.030;7.024;2024-02-14T06:12:03;9.10;85.69
72128;DHT22;60000;51.030;7.024;2024-02-14T06:14:28;9.08;85.85
72128;DHT22;60000;51.030;7.024;2024-02-14T06:16:56;9.07;86.00
72128;DHT22;60000;51.030;7.024;2024-02-14T06:19:21;9.07;86.13
72128;DHT22;60000;51.030;7.024;2024-02-14T06:21:47;9.05;86.35
72128;DHT22;60000;51.030;7.024;2024-02-14T06:24:12;9.07;86.41
72128;DHT22;60000;51.030;7.024;2024-02-14T06:26:38;9.05;86.48
72128;DHT22;60000;51.030;7.024;2024-02-14T06:29:03;9.08;86.51
72128;DHT22;60000;51.030;7.024;2024-02-14T06:31:29;9.07;86.69
72128;DHT22;60000;51.030;7.024;2024-02-14T06:33:54;9.08;86.78
72128;DHT22;60000;51.030;7.024;2024-02-14T06:36:19;9.10;86.91
72128;DHT22;60000;51.030;7.024;2024-02-14T06:38:45;9.10;86.90
72128;DHT22;60000;51.030;7.024;2024-02-14T06:41:11;9.11;87.09
72128;DHT22;60000;51.030;7.024;2024-02-14T06:43:37;9.14;87.10
72128;DHT22;60000;51.030;7.024;2024-02-14T06:46:04;9.10;87.13
72128;DHT22;60000;51.030;7.024;2024-02-14T06:48:30;9.11;87.16
72128;DHT22;60000;51.030;7.024;2024-02-14T06:50:55;9.10;87.24
72128;DHT22;60000;51.030;7.024;2024-02-14T06:53:20;9.14;87.32
72128;DHT22;60000;51.030;7.024;2024-02-14T06:55:46;9.12;87.35
72128;DHT22;60000;51.030;7.024;2024-02-14T06:58:11;9.12;87.44
72128;DHT22;60000;51.030;7.024;2024-02-14T07:00:37;9.15;87.46
72128;DHT22;60000;51.030;7.024;2024-02-14T07:03:02;9.20;87.41
72128;DHT22;60000;51.030;7.024;2024-02-14T07:05:28;9.21;87.31
72128;DHT22;60000;51.030;7.024;2024-02-14T07:07:54;9.20;87.24
72128;DHT22;60000;51.030;7.024;2024-02-14T07:10:20;9.24;87.23
72128;DHT22;60000;51.030;7.024;2024-02-14T07:12:45;9.21;87.13
72128;DHT22;60000;51.030;7.024;2024-02-14T07:15:10;9.22;87.18
72128;DHT22;60000;51.030;7.024;2024-02-14T07:17:36;9.25;87.17
72128;DHT22;60000;51.030;7.024;2024-02-14T07:20:04;9.25;87.20
72128;DHT22;60000;51.030;7.024;2024-02-14T07:22:29;9.28;87.18
72128;DHT22;60000;51.030;7.024;2024-02-14T07:24:55;9.31;87.11
72128;DHT22;60000;51.030;7.024;2024-02-14T07:27:21;9.30;87.13
72128;DHT22;60000;51.030;7.024;2024-02-14T07:29:47;9.34;87.02
72128;DHT22;60000;51.030;7.024;2024-02-14T07:32:12;9.34;86.96
72128;DHT22;60000;51.030;7.024;2024-02-14T07:34:40;9.36;86.84
72128;DHT22;60000;51.030;7.024;2024-02-14T07:37:06;9.39;86.71
72128;DHT22;60000;51.030;7.024;2024-02-14T07:39:32;9.42;86.62
72128;DHT22;60000;51.030;7.024;2024-02-14T07:42:00;9.41;86.54
72128;DHT22;60000;51.030;7.024;2024-02-14T07:44:25;9.45;86.37
72128;DHT22;60000;51.030;7.024;2024-02-14T07:46:50;9.49;86.18
72128;DHT22;60000;51.030;7.024;2024-02-14T07:49:17;9.51;86.01
72128;DHT22;60000;51.030;7.024;2024-02-14T07:51:42;9.55;85.89
72128;DHT22;60000;51.030;7.024;2024-02-14T07:54:07;9.59;85.73
72128;DHT22;60000;51.030;7.024;2024-02-14T07:56:33;9.63;85.64
72128;DHT22;60000;51.030;7.024;2024-02-14T07:58:58;9.65;85.56
72128;DHT22;60000;51.030;7.024;2024-02-14T08:01:25;9.68;85.39
72128;DHT22;60000;51.030;7.024;2024-02-14T08:03:50;9.70;85.20
72128;DHT22;60000;51.030;7.024;2024-02-14T08:06:16;9.75;85.13
72128;DHT22;60000;51.030;7.024;2024-02-14T08:08:42;9.79;85.11
72128;DHT22;60000;51.030;7.024;2024-02-14T08:11:09;9.80;85.18
72128;DHT22;60000;51.030;7.024;2024-02-14T08:13:34;9.85;84.96
72128;DHT22;60000;51.030;7.024;2024-02-14T08:16:00;9.91;84.53
72128;DHT22;60000;51.030;7.024;2024-02-14T08:18:25;9.96;84.75
72128;DHT22;60000;51.030;7.024;2024-02-14T08:20:52;10.00;84.55
72128;DHT22;60000;51.030;7.024;2024-02-14T08:23:17;10.03;84.44
72128;DHT22;60000;51.030;7.024;2024-02-14T08:25:43;10.03;84.21
72128;DHT22;60000;51.030;7.024;2024-02-14T08:28:09;10.06;84.09
72128;DHT22;60000;51.030;7.024;2024-02-14T08:30:34;10.06;84.00
72128;DHT22;60000;51.030;7.024;2024-02-14T08:33:00;10.10;84.00
72128;DHT22;60000;51.030;7.024;2024-02-14T08:35:25;10.13;84.03
72128;DHT22;60000;51.030;7.024;2024-02-14T08:37:50;10.18;83.97
72128;DHT22;60000;51.030;7.024;2024-02-14T08:40:16;10.22;83.88
72128;DHT22;60000;51.030;7.024;2024-02-14T08:42:41;10.28;83.64
72128;DHT22;60000;51.030;7.024;2024-02-14T08:45:07;10.30;83.57
72128;DHT22;60000;51.030;7.024;2024-02-14T08:47:33;10.36;83.47
72128;DHT22;60000;51.030;7.024;2024-02-14T08:49:58;10.40;83.37
72128;DHT22;60000;51.030;7.024;2024-02-14T08:52:24;10.45;83.34
72128;DHT22;60000;51.030;7.024;2024-02-14T08:54:50;10.51;83.03
72128;DHT22;60000;51.030;7.024;2024-02-14T08:57:16;10.57;82.98
72128;DHT22;60000;51.030;7.024;2024-02-14T08:59:43;10.59;82.73
72128;DHT22;60000;51.030;7.024;2024-02-14T09:02:12;10.65;82.56
72128;DHT22;60000;51.030;7.024;2024-02-14T09:04:37;10.67;82.50
72128;DHT22;60000;51.030;7.024;2024-02-14T09:07:02;10.72;82.43
72128;DHT22;60000;51.030;7.024;2024-02-14T09:09:28;10.80;82.45
72128;DHT22;60000;51.030;7.024;2024-02-14T09:11:54;10.92;82.42
72128;DHT22;60000;51.030;7.024;2024-02-14T09:14:20;10.99;82.08
72128;DHT22;60000;51.030;7.024;2024-02-14T09:16:45;11.02;81.88
72128;DHT22;60000;51.030;7.024;2024-02-14T09:19:11;11.17;82.04
72128;DHT22;60000;51.030;7.024;2024-02-14T09:21:37;11.30;82.00
72128;DHT22;60000;51.030;7.024;2024-02-14T09:24:03;11.38;81.61
72128;DHT22;60000;51.030;7.024;2024-02-14T09:26:29;11.46;80.93
72128;DHT22;60000;51.030;7.024;2024-02-14T09:28:55;11.53;80.42
72128;DHT22;60000;51.030;7.024;2024-02-14T09:31:20;11.58;80.27
72128;DHT22;60000;51.030;7.024;2024-02-14T09:33:47;11.63;79.92
72128;DHT22;60000;51.030;7.024;2024-02-14T09:36:13;11.68;79.79
72128;DHT22;60000;51.030;7.024;2024-02-14T09:38:40;11.73;79.34
72128;DHT22;60000;51.030;7.024;2024-02-14T09:43:38;11.85;79.21
72128;DHT22;60000;51.030;7.024;2024-02-14T09:46:06;11.94;78.82
72128;DHT22;60000;51.030;7.024;2024-02-14T09:48:32;11.98;78.84
72128;DHT22;60000;51.030;7.024;2024-02-14T09:50:58;12.04;78.25
72128;DHT22;60000;51.030;7.024;2024-02-14T09:53:25;12.06;77.98
72128;DHT22;60000;51.030;7.024;2024-02-14T09:55:51;12.08;77.75
72128;DHT22;60000;51.030;7.024;2024-02-14T09:58:17;12.14;78.17
72128;DHT22;60000;51.030;7.024;2024-02-14T10:00:43;12.15;78.02
72128;DHT22;60000;51.030;7.024;2024-02-14T10:03:08;12.18;77.76
72128;DHT22;60000;51.030;7.024;2024-02-14T10:05:34;12.18;77.86
72128;DHT22;60000;51.030;7.024;2024-02-14T10:08:00;12.21;77.84
72128;DHT22;60000;51.030;7.024;2024-02-14T10:10:27;12.25;77.87
72128;DHT22;60000;51.030;7.024;2024-02-14T10:12:54;12.29;77.54
72128;DHT22;60000;51.030;7.024;2024-02-14T10:15:20;12.30;77.64
72128;DHT22;60000;51.030;7.024;2024-02-14T10:17:45;12.36;77.64
72128;DHT22;60000;51.030;7.024;2024-02-14T10:20:16;12.36;77.41
72128;DHT22;60000;51.030;7.024;2024-02-14T10:22:42;12.39;77.50
72128;DHT22;60000;51.030;7.024;2024-02-14T10:25:07;12.40;77.32
72128;DHT22;60000;51.030;7.024;2024-02-14T10:27:37;12.40;77.22
72128;DHT22;60000;51.030;7.024;2024-02-14T10:30:12;12.40;77.52
72128;DHT22;60000;51.030;7.024;2024-02-14T10:32:39;12.43;77.77
72128;DHT22;60000;51.030;7.024;2024-02-14T10:35:13;12.40;77.92
72128;DHT22;60000;51.030;7.024;2024-02-14T10:37:40;12.43;78.13
72128;DHT22;60000;51.030;7.024;2024-02-14T10:40:06;12.43;78.04
72128;DHT22;60000;51.030;7.024;2024-02-14T10:42:33;12.50;78.08
72128;DHT22;60000;51.030;7.024;2024-02-14T10:44:59;12.56;77.59
72128;DHT22;60000;51.030;7.024;2024-02-14T10:47:32;12.67;76.82
72128;DHT22;60000;51.030;7.024;2024-02-14T10:50:01;12.76;76.97
72128;DHT22;60000;51.030;7.024;2024-02-14T10:52:32;12.84;76.80
72128;DHT22;60000;51.030;7.024;2024-02-14T10:54:59;12.88;76.02
72128;DHT22;60000;51.030;7.024;2024-02-14T10:57:27;12.90;75.86
72128;DHT22;60000;51.030;7.024;2024-02-14T10:59:53;12.97;75.69
72128;DHT22;60000;51.030;7.024;2024-02-14T11:02:20;13.05;75.43
72128;DHT22;60000;51.030;7.024;2024-02-14T11:04:46;13.18;75.78
72128;DHT22;60000;51.030;7.024;2024-02-14T11:07:11;13.22;75.09
72128;DHT22;60000;51.030;7.024;2024-02-14T11:09:38;13.26;74.90
72128;DHT22;60000;51.030;7.024;2024-02-14T11:12:08;13.31;75.15
72128;DHT22;60000;51.030;7.024;2024-02-14T11:14:34;13.31;75.17
72128;DHT22;60000;51.030;7.024;2024-02-14T11:17:02;13.31;75.36
72128;DHT22;60000;51.030;7.024;2024-02-14T11:19:33;13.34;75.86
72128;DHT22;60000;51.030;7.024;2024-02-14T11:22:10;13.35;76.18
72128;DHT22;60000;51.030;7.024;2024-02-14T11:24:37;13.26;76.82
72128;DHT22;60000;51.030;7.024;2024-02-14T11:27:02;13.16;77.73
72128;DHT22;60000;51.030;7.024;2024-02-14T11:29:30;13.11;78.67
72128;DHT22;60000;51.030;7.024;2024-02-14T11:32:00;13.05;79.26
72128;DHT22;60000;51.030;7.024;2024-02-14T11:34:26;13.05;79.60
72128;DHT22;60000;51.030;7.024;2024-02-14T11:36:51;13.08;79.99
72128;DHT22;60000;51.030;7.024;2024-02-14T11:39:17;13.08;79.67
72128;DHT22;60000;51.030;7.024;2024-02-14T11:41:42;13.03;79.72
72128;DHT22;60000;51.030;7.024;2024-02-14T11:44:08;13.00;79.37
72128;DHT22;60000;51.030;7.024;2024-02-14T11:46:35;12.97;79.57
72128;DHT22;60000;51.030;7.024;2024-02-14T11:49:04;13.00;79.67
72128;DHT22;60000;51.030;7.024;2024-02-14T11:51:31;12.97;79.51
72128;DHT22;60000;51.030;7.024;2024-02-14T11:53:57;13.00;79.43
72128;DHT22;60000;51.030;7.024;2024-02-14T11:56:30;13.04;79.20
72128;DHT22;60000;51.030;7.024;2024-02-14T11:58:59;13.01;78.98
72128;DHT22;60000;51.030;7.024;2024-02-14T12:01:25;13.03;78.49
72128;DHT22;60000;51.030;7.024;2024-02-14T12:03:51;13.01;78.30
72128;DHT22;60000;51.030;7.024;2024-02-14T12:06:17;13.03;78.47
72128;DHT22;60000;51.030;7.024;2024-02-14T12:08:42;13.10;78.04
72128;DHT22;60000;51.030;7.024;2024-02-14T12:11:08;13.04;78.27
72128;DHT22;60000;51.030;7.024;2024-02-14T12:13:34;13.04;78.64
72128;DHT22;60000;51.030;7.024;2024-02-14T12:16:03;12.95;78.68
72128;DHT22;60000;51.030;7.024;2024-02-14T12:18:28;12.93;79.01
72128;DHT22;60000;51.030;7.024;2024-02-14T12:21:03;12.86;79.06
72128;DHT22;60000;51.030;7.024;2024-02-14T12:23:33;12.83;78.99
72128;DHT22;60000;51.030;7.024;2024-02-14T12:26:02;12.77;78.94
72128;DHT22;60000;51.030;7.024;2024-02-14T12:28:29;12.81;78.83
72128;DHT22;60000;51.030;7.024;2024-02-14T12:30:56;12.83;78.84
72128;DHT22;60000;51.030;7.024;2024-02-14T12:33:23;12.81;78.62
72128;DHT22;60000;51.030;7.024;2024-02-14T12:35:50;12.80;78.72
72128;DHT22;60000;51.030;7.024;2024-02-14T12:38:17;12.81;78.93
72128;DHT22;60000;51.030;7.024;2024-02-14T12:40:42;12.80;79.18
72128;DHT22;60000;51.030;7.024;2024-02-14T12:43:09;12.79;79.43
72128;DHT22;60000;51.030;7.024;2024-02-14T12:45:38;12.76;79.74
72128;DHT22;60000;51.030;7.024;2024-02-14T12:48:05;12.72;79.88
72128;DHT22;60000;51.030;7.024;2024-02-14T12:50:31;12.68;80.28
72128;DHT22;60000;51.030;7.024;2024-02-14T12:52:57;12.64;80.46
72128;DHT22;60000;51.030;7.024;2024-02-14T12:55:23;12.64;80.65
72128;DHT22;60000;51.030;7.024;2024-02-14T12:57:54;12.67;80.68
72128;DHT22;60000;51.030;7.024;2024-02-14T13:00:19;12.66;80.96
72128;DHT22;60000;51.030;7.024;2024-02-14T13:02:47;12.66;81.03
72128;DHT22;60000;51.030;7.024;2024-02-14T13:05:12;12.63;81.11
72128;DHT22;60000;51.030;7.024;2024-02-14T13:07:38;12.60;81.05
72128;DHT22;60000;51.030;7.024;2024-02-14T13:12:31;12.59;80.59
72128;DHT22;60000;51.030;7.024;2024-02-14T13:14:56;12.60;80.35
72128;DHT22;60000;51.030;7.024;2024-02-14T13:17:22;12.59;80.15
72128;DHT22;60000;51.030;7.024;2024-02-14T13:19:48;12.59;79.77
72128;DHT22;60000;51.030;7.024;2024-02-14T13:22:15;12.63;79.73
72128;DHT22;60000;51.030;7.024;2024-02-14T13:24:40;12.61;79.61
72128;DHT22;60000;51.030;7.024;2024-02-14T13:27:06;12.64;79.29
72128;DHT22;60000;51.030;7.024;2024-02-14T13:29:31;12.64;79.30
72128;DHT22;60000;51.030;7.024;2024-02-14T13:31:56;12.67;79.28
72128;DHT22;60000;51.030;7.024;2024-02-14T13:34:22;12.72;79.16
72128;DHT22;60000;51.030;7.024;2024-02-14T13:36:47;12.72;79.02
72128;DHT22;60000;51.030;7.024;2024-02-14T13:39:13;12.73;78.87
72128;DHT22;60000;51.030;7.024;2024-02-14T13:41:39;12.77;78.86
72128;DHT22;60000;51.030;7.024;2024-02-14T13:44:06;12.81;78.73
72128;DHT22;60000;51.030;7.024;2024-02-14T13:46:32;12.83;78.75
72128;DHT22;60000;51.030;7.024;2024-02-14T13:48:58;12.83;78.79
72128;DHT22;60000;51.030;7.024;2024-02-14T13:51:23;12.81;78.70
72128;DHT22;60000;51.030;7.024;2024-02-14T13:53:49;12.83;78.85
72128;DHT22;60000;51.030;7.024;2024-02-14T13:56:14;12.83;79.12
72128;DHT22;60000;51.030;7.024;2024-02-14T13:58:41;12.81;79.88
72128;DHT22;60000;51.030;7.024;2024-02-14T14:01:06;12.79;79.94
72128;DHT22;60000;51.030;7.024;2024-02-14T14:03:32;12.76;80.21
72128;DHT22;60000;51.030;7.024;2024-02-14T14:05:59;12.76;80.68
72128;DHT22;60000;51.030;7.024;2024-02-14T14:08:25;12.68;81.10
72128;DHT22;60000;51.030;7.024;2024-02-14T14:10:50;12.68;81.55
72128;DHT22;60000;51.030;7.024;2024-02-14T14:13:16;12.66;82.09
72128;DHT22;60000;51.030;7.024;2024-02-14T14:15:41;12.60;82.58
72128;DHT22;60000;51.030;7.024;2024-02-14T14:18:07;12.55;83.01
72128;DHT22;60000;51.030;7.024;2024-02-14T14:20:33;12.52;83.48
72128;DHT22;60000;51.030;7.024;2024-02-14T14:22:59;12.49;83.91
72128;DHT22;60000;51.030;7.024;2024-02-14T14:25:25;12.46;84.29
72128;DHT22;60000;51.030;7.024;2024-02-14T14:27:50;12.40;84.73
72128;DHT22;60000;51.030;7.024;2024-02-14T14:30:16;12.39;85.01
72128;DHT22;60000;51.030;7.024;2024-02-14T14:32:41;12.36;85.40
72128;DHT22;60000;51.030;7.024;2024-02-14T14:35:06;12.32;85.74
72128;DHT22;60000;51.030;7.024;2024-02-14T14:37:31;12.26;85.99
72128;DHT22;60000;51.030;7.024;2024-02-14T14:39:57;12.21;86.35
72128;DHT22;60000;51.030;7.024;2024-02-14T14:42:22;12.18;86.68
72128;DHT22;60000;51.030;7.024;2024-02-14T14:44:48;12.14;87.03
72128;DHT22;60000;51.030;7.024;2024-02-14T14:47:13;12.08;87.37
72128;DHT22;60000;51.030;7.024;2024-02-14T14:49:38;12.04;87.69
72128;DHT22;60000;51.030;7.024;2024-02-14T14:52:04;12.01;88.19
72128;DHT22;60000;51.030;7.024;2024-02-14T14:54:30;11.99;88.49
72128;DHT22;60000;51.030;7.024;2024-02-14T14:56:55;11.94;88.90
72128;DHT22;60000;51.030;7.024;2024-02-14T14:59:21;11.89;89.24
72128;DHT22;60000;51.030;7.024;2024-02-14T15:01:48;11.88;89.51
72128;DHT22;60000;51.030;7.024;2024-02-14T15:04:14;11.87;89.87
72128;DHT22;60000;51.030;7.024;2024-02-14T15:06:39;11.84;90.15
72128;DHT22;60000;51.030;7.024;2024-02-14T15:09:05;11.81;90.44
72128;DHT22;60000;51.030;7.024;2024-02-14T15:11:31;11.77;90.69
72128;DHT22;60000;51.030;7.024;2024-02-14T15:13:57;11.75;90.92
72128;DHT22;60000;51.030;7.024;2024-02-14T15:16:22;11.73;91.13
72128;DHT22;60000;51.030;7.024;2024-02-14T15:18:48;11.74;91.23
72128;DHT22;60000;51.030;7.024;2024-02-14T15:21:15;11.70;91.44
72128;DHT22;60000;51.030;7.024;2024-02-14T15:23:40;11.67;91.53
72128;DHT22;60000;51.030;7.024;2024-02-14T15:26:06;11.66;91.72
72128;DHT22;60000;51.030;7.024;2024-02-14T15:28:33;11.64;91.80
72128;DHT22;60000;51.030;7.024;2024-02-14T15:31:08;11.63;91.92
72128;DHT22;60000;51.030;7.024;2024-02-14T15:33:52;11.61;92.05
72128;DHT22;60000;51.030;7.024;2024-02-14T15:36:18;11.58;92.11
72128;DHT22;60000;51.030;7.024;2024-02-14T15:38:43;11.56;92.17
72128;DHT22;60000;51.030;7.024;2024-02-14T15:41:09;11.53;92.29